Waubun, Minnesota
Current Conditions -  °F | °C
As of 12:15 PM on Friday 19 Dec 2014 (Local Time) from K3N8 Reporting Station
Haze Haze  
Wind Chill: 15°   Ceiling: 400
Heat Index: 25°   Visibility: 4mi
Dew Point: 23°   Wind: 9mph
Humidity: 94%   Direction: 160°SSE
Pressure: 30.06"   Gusts: NA
Location:  47.18°N, 95.94°W
Report Text: K3N8 191815Z AUTO 16008KT 4SM BR OVC004 M04/M05 A3006 RMK AO2 T10411050
Loading
Personal Weather Stations






























Interactive Weather Map New forecast layout! Learn more

10-Day Weather Forecast

Advertisements
Track Severe Weather on mobile